Time;durP1;ratioP1;P1;durP2;ratioP2;P2;SDS_P1;SDS_P2;PMS_P1;PMS_P2;Temp;Humidity;BMP_temperature;BMP_pressure;BME280_temperature;BME280_humidity;BME280_pressure;Samples;Min_cycle;Max_cycle;Signal;HPM_P1;HPM_P2
2021/09/22 00:01:55;;;;;;;12.95;11.60;;;;;;;12.00;75.08;100984.28;4810577;29;96977;-82
2021/09/22 00:04:21;;;;;;;12.15;11.15;;;;;;;11.83;75.76;100970.72;4812721;29;96634;-80
2021/09/22 00:06:47;;;;;;;12.25;11.15;;;;;;;12.01;74.94;100961.44;4812633;29;97033;-81
2021/09/22 00:09:12;;;;;;;12.20;11.20;;;;;;;11.88;75.92;100975.88;4810929;29;96811;-81
2021/09/22 00:11:56;;;;;;;12.00;11.00;;;;;;;11.79;76.48;100971.72;4827661;29;96749;-78
2021/09/22 00:14:38;;;;;;;12.20;10.93;;;;;;;11.80;76.25;100962.91;4810921;29;96560;-79
2021/09/22 00:49:04;;;;;;;13.77;12.38;;;;;;;11.79;76.56;100930.50;4952964;23;98974;-81
2021/09/22 00:51:37;;;;;;;12.60;11.48;;;;;;;11.83;76.60;100928.63;4886484;28;100540;-83
2021/09/22 00:54:04;;;;;;;12.57;11.48;;;;;;;11.88;76.72;100925.91;4874525;28;97092;-80
2021/09/22 00:56:29;;;;;;;13.20;12.10;;;;;;;11.92;76.36;100920.50;4890912;28;98062;-81
2021/09/22 00:58:55;;;;;;;15.52;13.88;;;;;;;11.84;76.62;100913.69;4875248;28;100024;-82
2021/09/22 01:01:21;;;;;;;15.23;13.60;;;;;;;11.87;76.52;100916.28;4885578;28;102014;-83
2021/09/22 01:03:47;;;;;;;19.42;14.48;;;;;;;11.85;76.26;100908.44;4870389;28;98173;-82
2021/09/22 01:06:15;;;;;;;19.45;14.65;;;;;;;11.82;76.89;100903.25;4888846;28;97182;-82
2021/09/22 01:08:41;;;;;;;24.63;16.35;;;;;;;11.87;76.58;100904.00;4889376;28;100637;-82
2021/09/22 01:11:07;;;;;;;19.55;14.70;;;;;;;11.88;76.39;100892.56;4906940;28;96875;-83
2021/09/22 01:13:32;;;;;;;23.23;16.80;;;;;;;11.86;76.62;100888.25;4876714;28;96668;-82
2021/09/22 01:15:58;;;;;;;19.73;14.20;;;;;;;11.88;76.45;100881.19;4892981;28;97037;-83
2021/09/22 01:18:24;;;;;;;15.43;13.63;;;;;;;11.85;76.75;100882.13;4870385;28;99313;-81
2021/09/22 01:20:55;;;;;;;18.73;15.07;;;;;;;11.84;76.67;100874.25;4905563;28;96859;-81
2021/09/22 01:23:23;;;;;;;17.90;13.50;;;;;;;11.83;77.11;100881.28;4887564;28;96819;-82
2021/09/22 01:25:52;;;;;;;21.23;15.57;;;;;;;11.83;77.27;100878.66;4873124;28;97384;-83
2021/09/22 01:28:21;;;;;;;25.05;15.75;;;;;;;11.84;76.81;100869.88;4890249;28;100552;-81
2021/09/22 01:30:49;;;;;;;23.73;16.98;;;;;;;11.88;76.86;100878.56;4885242;28;99977;-83
2021/09/22 01:33:17;;;;;;;20.00;15.52;;;;;;;11.87;77.05;100869.81;4902292;28;96891;-81
2021/09/22 01:36:04;;;;;;;16.73;13.10;;;;;;;11.86;76.77;100870.69;4917244;28;96772;-81
2021/09/22 01:38:31;;;;;;;15.88;14.25;;;;;;;11.90;76.92;100871.47;4869533;28;99873;-82
2021/09/22 01:41:15;;;;;;;16.42;14.63;;;;;;;11.94;76.47;100862.56;4889361;28;96936;-80
2021/09/22 01:43:51;;;;;;;18.65;15.93;;;;;;;11.93;76.88;100856.47;4897353;28;96895;-82
2021/09/22 01:46:20;;;;;;;19.02;16.38;;;;;;;11.90;76.75;100848.66;4880044;28;96724;-81
2021/09/22 01:48:49;;;;;;;21.13;16.08;;;;;;;11.91;77.20;100849.53;4905018;28;97578;-81
2021/09/22 01:51:15;;;;;;;17.98;15.88;;;;;;;11.91;76.89;100841.63;4876636;28;99303;-80
2021/09/22 01:53:58;;;;;;;17.10;15.27;;;;;;;11.89;77.20;100838.19;4889480;28;98163;-81
2021/09/22 01:56:24;;;;;;;17.58;13.95;;;;;;;11.90;77.39;100832.03;4882195;28;96960;-81
2021/09/22 01:58:51;;;;;;;17.83;14.73;;;;;;;11.96;76.93;100842.34;4876527;28;98060;-81
2021/09/22 02:01:19;;;;;;;19.20;14.93;;;;;;;11.90;77.39;100843.41;4897154;28;99467;-82
2021/09/22 02:03:53;;;;;;;14.88;13.32;;;;;;;11.89;77.33;100841.66;4885149;28;96727;-82
2021/09/22 02:06:45;;;;;;;;;;;;;;;11.92;77.06;100836.31;4887616;28;96916;-82
2021/09/22 02:09:12;;;;;;;19.83;15.68;;;;;;;11.95;77.21;100832.72;4889638;28;102352;-81
2021/09/22 02:11:39;;;;;;;14.40;13.00;;;;;;;11.94;77.52;100839.75;4883133;28;99710;-82
2021/09/22 02:14:08;;;;;;;15.25;13.93;;;;;;;11.99;76.91;100835.22;4885838;28;96811;-82
2021/09/22 02:16:42;;;;;;;14.85;13.45;;;;;;;11.95;77.28;100830.09;4914272;28;96830;-83
2021/09/22 02:19:17;;;;;;;14.80;13.32;;;;;;;11.94;77.28;100829.22;4889536;28;100912;-82
2021/09/22 02:22:05;;;;;;;14.82;11.88;;;;;;;11.97;77.34;100825.66;4881115;28;97479;-81
2021/09/22 02:24:42;;;;;;;15.82;14.32;;;;;;;11.95;77.59;100823.06;4888568;28;96911;-82
2021/09/22 02:27:10;;;;;;;17.48;12.10;;;;;;;11.96;77.78;100826.56;4893311;28;97241;-82
2021/09/22 02:29:41;;;;;;;14.30;12.88;;;;;;;11.93;77.75;100824.03;4892104;28;99167;-82
2021/09/22 02:32:08;;;;;;;14.25;13.00;;;;;;;11.94;77.38;100821.34;4880655;28;99724;-81
2021/09/22 02:34:34;;;;;;;14.05;12.63;;;;;;;11.98;77.75;100816.84;4889971;28;96815;-83
2021/09/22 02:37:00;;;;;;;14.25;13.05;;;;;;;11.99;77.49;100813.31;4876551;28;96752;-82
2021/09/22 02:39:26;;;;;;;12.93;11.73;;;;;;;11.92;77.86;100801.25;4894299;28;99444;-83
2021/09/22 02:41:53;;;;;;;13.40;11.45;;;;;;;11.95;77.59;100804.63;4882107;28;98858;-82
2021/09/22 02:44:19;;;;;;;13.57;12.30;;;;;;;11.99;77.64;100808.06;4888772;28;96702;-82
2021/09/22 02:46:48;;;;;;;13.35;12.18;;;;;;;11.97;77.63;100804.59;4890649;28;98003;-82
2021/09/22 02:49:14;;;;;;;13.90;12.60;;;;;;;11.94;77.79;100802.91;4893540;28;100657;-82
2021/09/22 02:51:39;;;;;;;13.82;12.55;;;;;;;11.93;77.64;100793.31;4882548;28;99183;-80
2021/09/22 02:54:05;;;;;;;13.20;11.88;;;;;;;11.91;78.00;100796.91;4904086;28;96860;-80
2021/09/22 02:56:37;;;;;;;13.35;12.25;;;;;;;11.94;77.97;100795.03;4889263;28;96866;-81
2021/09/22 02:59:03;;;;;;;14.65;13.27;;;;;;;11.92;78.04;100798.63;4892002;28;99172;-81
2021/09/22 03:01:30;;;;;;;13.77;12.43;;;;;;;11.91;78.22;100799.53;4888948;28;99674;-81
2021/09/22 03:03:56;;;;;;;13.85;12.65;;;;;;;11.90;78.16;100797.81;4899562;28;96668;-81
2021/09/22 03:06:22;;;;;;;12.35;11.15;;;;;;;11.95;78.15;100801.16;4887625;28;97063;-82
2021/09/22 03:08:48;;;;;;;13.43;12.13;;;;;;;11.95;78.01;100801.16;4876784;28;101043;-80
2021/09/22 03:11:14;;;;;;;13.30;12.20;;;;;;;11.96;78.14;100795.00;4905944;28;99246;-81
2021/09/22 03:13:40;;;;;;;13.10;11.80;;;;;;;11.99;78.24;100802.78;4891772;28;96630;-80
2021/09/22 03:16:07;;;;;;;12.98;11.80;;;;;;;11.99;78.01;100800.16;4891758;28;96755;-82
2021/09/22 03:18:33;;;;;;;13.52;12.27;;;;;;;11.99;78.10;100792.25;4890077;28;100326;-81
2021/09/22 03:20:59;;;;;;;13.45;12.23;;;;;;;11.96;77.71;100784.47;4872926;28;99576;-82
2021/09/22 03:23:25;;;;;;;13.95;12.10;;;;;;;11.96;77.76;100792.38;4890741;28;96785;-80
2021/09/22 03:25:54;;;;;;;12.80;11.70;;;;;;;11.96;78.43;100798.47;4891108;28;97034;-82
2021/09/22 03:28:20;;;;;;;13.13;12.02;;;;;;;11.94;77.97;100802.06;4894736;28;98591;-83
2021/09/22 03:30:49;;;;;;;11.77;10.70;;;;;;;11.89;78.35;100790.81;4891881;28;98939;-80
2021/09/22 03:33:15;;;;;;;12.65;11.32;;;;;;;11.94;77.98;100795.03;4887125;28;96658;-82
2021/09/22 03:35:43;;;;;;;12.15;10.95;;;;;;;11.91;78.51;100789.00;4889136;28;96623;-82
2021/09/22 03:38:09;;;;;;;12.77;11.55;;;;;;;11.95;78.60;100801.16;4904537;28;97626;-80
2021/09/22 03:40:35;;;;;;;11.50;10.40;;;;;;;11.91;78.35;100804.81;4873454;28;99161;-80
2021/09/22 03:43:01;;;;;;;12.50;11.40;;;;;;;11.94;78.40;100797.66;4904381;28;96635;-81
2021/09/22 03:45:28;;;;;;;12.50;11.30;;;;;;;11.98;77.84;100796.66;4874286;28;96924;-82
2021/09/22 03:47:54;;;;;;;12.93;11.82;;;;;;;11.96;78.59;100805.53;4882584;28;99093;-81
2021/09/22 03:50:20;;;;;;;11.82;10.73;;;;;;;11.94;78.74;100802.06;4893575;28;97248;-83
2021/09/22 03:53:34;;;;;;;12.95;11.75;;;;;;;11.92;78.89;100810.00;4901746;28;97435;-80
2021/09/22 03:59:55;;;;;;;12.77;11.77;;;;;;;11.87;79.15;100797.91;4905252;28;96507;-80
2021/09/22 04:06:11;;;;;;;13.27;12.15;;;;;;;11.87;79.30;100798.78;4892200;28;96652;-80
2021/09/22 04:09:32;;;;;;;12.45;11.35;;;;;;;11.92;79.19;100804.72;4894768;28;96697;-81
2021/09/22 04:11:58;;;;;;;12.02;11.00;;;;;;;11.95;79.29;100804.63;4892617;28;99358;-81
2021/09/22 04:14:24;;;;;;;13.38;11.85;;;;;;;11.97;78.62;100797.56;4901809;28;98588;-82
2021/09/22 04:16:49;;;;;;;12.65;11.55;;;;;;;11.96;78.47;100810.78;4890215;28;97310;-81
2021/09/22 04:19:15;;;;;;;11.43;10.52;;;;;;;11.94;78.72;100804.69;4891272;28;96833;-81
2021/09/22 04:21:41;;;;;;;11.65;10.85;;;;;;;11.92;78.99;100811.78;4890255;28;100630;-81
2021/09/22 04:24:06;;;;;;;12.57;11.52;;;;;;;11.93;78.89;100809.09;4893109;28;100296;-80
2021/09/22 04:26:32;;;;;;;12.00;10.95;;;;;;;11.91;79.16;100810.06;4896162;28;96737;-82
2021/09/22 04:29:06;;;;;;;12.63;11.52;;;;;;;11.95;78.91;100817.78;4891003;28;96926;-82
2021/09/22 04:32:31;;;;;;;11.45;10.45;;;;;;;11.97;79.26;100829.13;4891383;28;96664;-82
2021/09/22 04:43:17;;;;;;;12.23;11.27;;;;;;;11.99;78.64;100829.94;4908196;28;96689;-80
2021/09/22 04:46:02;;;;;;;11.88;10.82;;;;;;;12.00;78.78;100831.66;4907389;28;97211;-79
2021/09/22 04:48:47;;;;;;;11.50;10.50;;;;;;;12.05;78.91;100830.69;4903347;28;97604;-78
2021/09/22 04:51:31;;;;;;;10.18;9.43;;;;;;;12.07;78.59;100834.97;4905000;28;97207;-79
2021/09/22 04:54:15;;;;;;;10.70;9.82;;;;;;;12.09;78.52;100838.41;4893933;28;98815;-78
2021/09/22 04:56:58;;;;;;;10.85;10.05;;;;;;;12.08;78.61;100841.09;4907526;28;96737;-82
2021/09/22 04:59:42;;;;;;;10.52;9.63;;;;;;;12.16;78.43;100836.47;4907050;28;97133;-78
2021/09/22 05:02:26;;;;;;;10.05;9.25;;;;;;;12.11;78.04;100836.59;4893137;28;96713;-78
2021/09/22 05:05:12;;;;;;;10.60;9.70;;;;;;;12.07;78.28;100842.00;4907534;28;96851;-78
2021/09/22 05:07:59;;;;;;;11.07;10.18;;;;;;;12.10;78.33;100839.25;4895042;28;98201;-78
2021/09/22 05:10:54;;;;;;;11.80;10.80;;;;;;;12.07;78.57;100837.63;4842397;28;97945;-78
2021/09/22 05:13:38;;;;;;;12.50;11.35;;;;;;;12.07;78.54;100844.63;4905592;28;97888;-78
2021/09/22 05:16:22;;;;;;;12.30;11.30;;;;;;;12.10;78.05;100847.16;4897142;28;96935;-78
2021/09/22 05:19:06;;;;;;;12.25;11.13;;;;;;;12.10;78.06;100857.69;4886600;28;97162;-78
2021/09/22 05:21:51;;;;;;;13.75;11.70;;;;;;;12.08;77.97;100863.00;4894039;28;97028;-78
2021/09/22 05:24:36;;;;;;;11.85;10.85;;;;;;;12.11;78.34;100859.41;4889326;28;96851;-79
2021/09/22 05:27:19;;;;;;;13.20;12.10;;;;;;;12.17;78.29;100859.22;4904994;28;97234;-79
2021/09/22 05:30:05;;;;;;;12.57;11.27;;;;;;;12.19;78.16;100860.03;4889676;28;97841;-78
2021/09/22 05:32:49;;;;;;;11.75;10.65;;;;;;;12.16;77.59;100866.25;4901925;28;97318;-78
2021/09/22 05:35:33;;;;;;;9.65;8.75;;;;;;;12.12;77.37;100863.75;4892399;28;96841;-78
2021/09/22 05:38:18;;;;;;;11.45;10.35;;;;;;;12.11;77.61;100873.44;4884797;28;97732;-78
2021/09/22 05:41:03;;;;;;;10.95;9.85;;;;;;;12.04;77.92;100871.88;4885588;28;96943;-78
2021/09/22 05:43:50;;;;;;;11.43;10.27;;;;;;;12.10;78.14;100869.09;4904079;28;97154;-78
2021/09/22 05:46:33;;;;;;;10.10;9.27;;;;;;;12.14;77.47;100875.13;4903815;28;96923;-78
2021/09/22 05:49:17;;;;;;;10.95;10.15;;;;;;;12.16;77.17;100875.94;4901833;28;97087;-78
2021/09/22 05:52:02;;;;;;;10.88;10.02;;;;;;;12.03;77.09;100871.94;4889532;28;98077;-79
2021/09/22 05:54:47;;;;;;;9.85;9.15;;;;;;;12.01;77.46;100869.34;4898571;28;97455;-78
2021/09/22 05:57:31;;;;;;;11.07;10.18;;;;;;;11.99;77.39;100874.69;4891815;28;96974;-78
2021/09/22 06:00:15;;;;;;;11.25;10.45;;;;;;;12.04;77.31;100878.94;4903272;28;97178;-78
2021/09/22 06:03:07;;;;;;;11.13;10.25;;;;;;;12.11;76.60;100878.69;4904449;28;99020;-79
2021/09/22 06:05:51;;;;;;;10.07;9.27;;;;;;;12.04;77.02;100874.53;4885974;28;96991;-79
2021/09/22 06:08:35;;;;;;;10.88;10.00;;;;;;;12.10;76.88;100879.63;4886835;28;97265;-78
2021/09/22 06:11:18;;;;;;;11.10;10.18;;;;;;;12.08;77.27;100888.47;4872158;28;97441;-78
2021/09/22 06:13:55;;;;;;;10.68;9.77;;;;;;;12.10;77.28;100882.25;4886151;28;101703;-77
2021/09/22 06:16:22;;;;;;;11.32;10.45;;;;;;;12.16;76.92;100884.69;4867401;28;101430;-79
2021/09/22 06:18:48;;;;;;;10.98;10.07;;;;;;;12.11;76.61;100888.38;4884579;28;96777;-78
2021/09/22 06:21:15;;;;;;;9.35;8.55;;;;;;;12.15;76.45;100888.22;4867024;28;97479;-77
2021/09/22 06:23:41;;;;;;;9.43;8.65;;;;;;;12.16;75.97;100887.31;4865578;28;101286;-77
2021/09/22 06:26:07;;;;;;;9.73;8.93;;;;;;;12.12;76.41;100904.09;4866705;28;100313;-79
2021/09/22 06:28:34;;;;;;;10.02;9.13;;;;;;;12.08;77.35;100910.38;4882021;28;97061;-78
2021/09/22 06:31:00;;;;;;;9.98;9.23;;;;;;;12.09;76.76;100912.09;4886624;28;98053;-79
2021/09/22 06:33:25;;;;;;;9.50;8.80;;;;;;;11.98;76.35;100906.28;4900300;28;98270;-78
2021/09/22 06:35:59;;;;;;;8.88;8.05;;;;;;;11.96;77.12;100910.75;4881428;28;101423;-78
2021/09/22 06:38:27;;;;;;;9.40;8.65;;;;;;;11.95;77.37;100925.66;4881087;28;97622;-78
2021/09/22 06:40:57;;;;;;;8.48;7.88;;;;;;;11.88;77.65;100923.28;4883683;28;97380;-78
2021/09/22 06:43:25;;;;;;;10.30;9.30;;;;;;;11.85;77.12;100918.97;4882756;28;99760;-79
2021/09/22 06:45:51;;;;;;;10.82;9.40;;;;;;;11.88;76.72;100932.03;4869652;28;101681;-82
2021/09/22 06:48:16;;;;;;;10.20;9.30;;;;;;;11.86;76.55;100938.22;4899642;28;97488;-81
2021/09/22 06:50:43;;;;;;;10.90;9.90;;;;;;;11.82;76.64;100942.69;4869230;28;97128;-80
2021/09/22 06:53:09;;;;;;;10.70;9.80;;;;;;;11.78;76.55;100941.06;4901293;28;101449;-81
2021/09/22 06:55:35;;;;;;;10.38;9.48;;;;;;;11.79;76.80;100948.91;4890820;28;99738;-82
2021/09/22 06:58:01;;;;;;;10.23;9.23;;;;;;;11.79;76.21;100954.16;4894443;28;96703;-80
2021/09/22 07:00:27;;;;;;;10.23;9.43;;;;;;;11.79;76.27;100953.31;4894364;28;96600;-80
2021/09/22 07:02:53;;;;;;;10.75;9.65;;;;;;;11.75;76.24;100951.66;4907954;28;96670;-82
2021/09/22 07:05:18;;;;;;;9.82;8.93;;;;;;;11.72;76.11;100957.00;4896677;28;99124;-80
2021/09/22 07:07:46;;;;;;;9.25;8.02;;;;;;;11.71;75.65;100952.66;4887882;28;96435;-82
2021/09/22 07:13:02;;;;;;;9.88;9.07;;;;;;;11.69;75.28;100968.50;5303348;23;99209;-83
2021/09/22 07:15:28;;;;;;;9.77;8.93;;;;;;;11.71;75.14;100964.03;4892859;28;99132;-83
2021/09/22 07:17:54;;;;;;;10.20;9.40;;;;;;;11.72;75.32;100973.69;4891438;28;97310;-78
2021/09/22 07:20:20;;;;;;;10.20;9.30;;;;;;;11.65;75.18;100984.41;4886254;28;97422;-81
2021/09/22 07:22:45;;;;;;;11.40;10.40;;;;;;;11.69;75.49;100984.28;4891996;28;97918;-78
2021/09/22 07:25:11;;;;;;;10.57;9.65;;;;;;;11.74;75.09;100987.63;4886832;28;100918;-80
2021/09/22 07:27:37;;;;;;;10.30;9.40;;;;;;;11.77;74.97;100987.53;4884142;28;97198;-82
2021/09/22 07:30:05;;;;;;;9.90;9.02;;;;;;;11.77;75.07;100992.78;4888110;28;97248;-81
2021/09/22 07:32:31;;;;;;;9.85;8.98;;;;;;;11.80;75.31;100989.22;4882243;28;97112;-83
2021/09/22 07:34:56;;;;;;;10.38;9.32;;;;;;;11.89;74.93;101003.91;4886786;28;99364;-82
2021/09/22 07:37:22;;;;;;;8.85;8.13;;;;;;;11.86;74.68;100994.34;4874491;28;96986;-82
2021/09/22 07:39:47;;;;;;;11.80;9.10;;;;;;;11.87;75.35;101008.34;4897308;28;97074;-82
2021/09/22 07:42:14;;;;;;;11.02;10.13;;;;;;;11.88;74.97;101008.31;4901622;28;96661;-80
2021/09/22 07:44:41;;;;;;;9.48;8.68;;;;;;;11.90;75.11;101011.78;4866859;28;99561;-80
2021/09/22 07:47:07;;;;;;;9.02;8.23;;;;;;;11.87;75.02;101027.66;4885447;28;97893;-79
2021/09/22 07:49:33;;;;;;;8.65;7.85;;;;;;;11.88;75.01;101026.72;4863706;28;96678;-81
2021/09/22 07:51:59;;;;;;;9.27;8.43;;;;;;;11.87;74.44;101032.00;4885015;28;101264;-80
2021/09/22 07:54:25;;;;;;;9.10;8.23;;;;;;;11.91;74.73;101033.69;4900790;28;98069;-80
2021/09/22 07:56:50;;;;;;;9.98;8.45;;;;;;;11.97;74.72;101034.34;4896101;28;97339;-81
2021/09/22 07:59:16;;;;;;;10.02;8.95;;;;;;;11.98;74.28;101030.84;4872239;28;96741;-81
2021/09/22 08:01:43;;;;;;;10.23;8.88;;;;;;;12.19;73.98;101039.03;4896240;28;97981;-82
2021/09/22 08:04:08;;;;;;;7.95;7.25;;;;;;;12.22;73.15;101036.28;4879509;28;97546;-79
2021/09/22 08:06:34;;;;;;;8.27;7.43;;;;;;;12.21;73.42;101034.53;4900017;28;97194;-78
2021/09/22 08:08:59;;;;;;;8.00;7.20;;;;;;;12.27;73.07;101046.66;4886606;28;97403;-78
2021/09/22 08:11:25;;;;;;;10.20;9.30;;;;;;;12.25;73.49;101054.63;4891015;28;101156;-77
2021/09/22 08:13:50;;;;;;;9.38;8.32;;;;;;;12.24;72.84;101059.00;4898036;28;100787;-78
2021/09/22 08:16:16;;;;;;;8.27;7.57;;;;;;;12.26;73.14;101058.13;4897427;28;97316;-78
2021/09/22 08:18:45;;;;;;;8.30;7.60;;;;;;;12.22;72.83;101060.00;4882173;28;97655;-78
2021/09/22 08:21:12;;;;;;;10.45;9.45;;;;;;;12.30;72.61;101063.22;4880031;28;100951;-77
2021/09/22 08:23:38;;;;;;;9.13;8.32;;;;;;;12.44;72.40;101068.09;4868762;28;101915;-78
2021/09/22 08:26:04;;;;;;;8.90;8.18;;;;;;;12.57;71.74;101056.28;4877815;28;97959;-83
2021/09/22 08:28:30;;;;;;;10.60;8.50;;;;;;;12.77;71.50;101054.78;4865940;28;97309;-80
2021/09/22 08:30:55;;;;;;;9.45;7.95;;;;;;;12.91;70.90;101057.84;4893438;28;101620;-78
2021/09/22 08:33:21;;;;;;;10.73;9.73;;;;;;;13.23;70.49;101056.81;4879771;28;101765;-82
2021/09/22 08:35:46;;;;;;;10.32;9.32;;;;;;;13.42;70.46;101057.09;4881263;28;96813;-79
2021/09/22 08:38:12;;;;;;;9.13;8.32;;;;;;;13.57;70.60;101060.97;4878329;28;97139;-83
2021/09/22 08:40:37;;;;;;;11.18;8.50;;;;;;;13.57;70.46;101055.69;4872042;28;101200;-82
2021/09/22 08:43:03;;;;;;;9.23;8.40;;;;;;;13.55;70.45;101054.88;4860974;28;101479;-82
2021/09/22 08:45:30;;;;;;;9.40;8.70;;;;;;;13.69;69.84;101046.50;4863549;28;97118;-83
2021/09/22 08:47:56;;;;;;;9.82;8.85;;;;;;;13.82;70.88;101050.44;4861827;28;96927;-82
2021/09/22 08:50:25;;;;;;;10.85;9.90;;;;;;;13.93;70.74;101042.09;4875207;28;98194;-83
2021/09/22 08:52:50;;;;;;;10.65;9.57;;;;;;;13.85;70.47;101047.69;4892195;28;97517;-82
2021/09/22 08:55:16;;;;;;;10.70;9.80;;;;;;;13.60;70.95;101050.31;4870167;28;97122;-78
2021/09/22 08:57:41;;;;;;;10.88;9.98;;;;;;;13.45;71.76;101058.75;4877769;28;97266;-83
2021/09/22 09:00:09;;;;;;;10.05;9.25;;;;;;;13.31;72.24;101068.00;4875372;28;100357;-81
2021/09/22 09:02:40;;;;;;;9.55;8.65;;;;;;;13.22;72.64;101070.91;4861460;28;101284;-83
2021/09/22 09:05:12;;;;;;;10.15;9.15;;;;;;;13.21;72.82;101082.38;4882641;28;96699;-83
2021/09/22 09:07:58;;;;;;;9.82;8.93;;;;;;;13.23;72.84;101077.03;4865641;28;97574;-84
2021/09/22 09:10:32;;;;;;;9.77;8.88;;;;;;;13.39;72.17;101082.72;4914548;28;98078;-82
2021/09/22 09:13:03;;;;;;;9.52;8.60;;;;;;;13.45;72.48;101082.50;4879489;28;99919;-83
2021/09/22 09:15:31;;;;;;;10.60;9.73;;;;;;;13.49;72.47;101086.75;4895689;28;97300;-82
2021/09/22 09:17:59;;;;;;;9.77;8.98;;;;;;;13.61;71.94;101086.31;4883371;28;97695;-82
2021/09/22 09:20:27;;;;;;;10.40;9.38;;;;;;;13.73;71.27;101091.19;4878134;28;98036;-82
2021/09/22 09:23:02;;;;;;;10.18;9.38;;;;;;;13.82;71.49;101085.59;4860930;28;101251;-83
2021/09/22 09:25:29;;;;;;;11.10;9.27;;;;;;;13.85;70.88;101078.50;4892236;28;96744;-81
2021/09/22 09:27:55;;;;;;;10.13;9.13;;;;;;;13.92;70.50;101080.84;4875169;28;97593;-84
2021/09/22 09:30:26;;;;;;;9.55;8.75;;;;;;;13.91;70.34;101079.13;4877021;28;101064;-84
2021/09/22 09:32:52;;;;;;;9.23;8.52;;;;;;;13.80;70.95;101087.41;4871569;28;101859;-83
2021/09/22 09:35:23;;;;;;;9.43;8.63;;;;;;;13.70;70.60;101083.38;4879512;28;97235;-85
2021/09/22 09:37:56;;;;;;;10.13;9.15;;;;;;;13.58;71.21;101086.44;4893512;28;97653;-85
2021/09/22 09:40:28;;;;;;;9.77;8.88;;;;;;;13.47;71.22;101096.50;4865332;28;100247;-86
2021/09/22 09:43:08;;;;;;;10.07;9.18;;;;;;;13.43;71.86;101105.41;4881220;28;98223;-85
2021/09/22 09:45:42;;;;;;;12.88;9.05;;;;;;;13.30;72.38;101097.06;4861619;28;97349;-85
2021/09/22 09:48:22;;;;;;;12.88;9.73;;;;;;;13.31;72.72;101085.59;4865270;28;97410;-83
2021/09/22 09:50:52;;;;;;;10.75;9.75;;;;;;;13.31;72.34;101101.41;4883002;28;98202;-85
2021/09/22 09:53:26;;;;;;;8.93;8.13;;;;;;;13.31;72.27;101102.28;4878530;28;101659;-85
2021/09/22 09:55:53;;;;;;;8.15;7.35;;;;;;;13.43;72.17;101097.50;4875135;28;96781;-85
2021/09/22 09:58:22;;;;;;;12.50;8.65;;;;;;;13.39;71.54;101101.16;4881872;28;96921;-85
2021/09/22 10:00:49;;;;;;;11.00;7.65;;;;;;;13.43;71.73;101100.13;4898393;28;97750;-85
2021/09/22 10:03:15;;;;;;;8.95;8.05;;;;;;;13.47;71.28;101110.56;4877438;28;97718;-83
2021/09/22 10:05:40;;;;;;;9.68;8.57;;;;;;;13.52;70.59;101103.31;4882068;28;97151;-85
2021/09/22 10:08:08;;;;;;;9.50;8.50;;;;;;;13.68;70.25;101108.94;4882154;28;97500;-78
2021/09/22 10:10:33;;;;;;;8.15;7.45;;;;;;;13.71;70.00;101108.00;4895208;28;98438;-78
2021/09/22 10:13:00;;;;;;;11.60;7.60;;;;;;;13.58;69.40;101113.69;4877614;28;97838;-84
2021/09/22 10:15:29;;;;;;;10.07;7.60;;;;;;;13.51;70.13;101108.66;4895112;28;97147;-84
2021/09/22 10:17:56;;;;;;;7.55;6.65;;;;;;;13.52;70.06;101113.00;4879929;28;97628;-84
2021/09/22 10:20:22;;;;;;;8.20;7.53;;;;;;;13.46;69.64;101100.91;4872943;28;98660;-82
2021/09/22 10:22:47;;;;;;;8.45;7.60;;;;;;;13.56;69.12;101109.38;4863032;28;100478;-84
2021/09/22 10:25:13;;;;;;;7.82;7.13;;;;;;;13.80;68.64;101118.22;4863138;28;97036;-84
2021/09/22 10:27:39;;;;;;;10.18;7.22;;;;;;;14.11;67.73;101107.44;4879322;28;97213;-85
2021/09/22 10:30:07;;;;;;;8.15;7.35;;;;;;;14.85;66.94;101109.97;4889631;28;101462;-84
2021/09/22 10:32:44;;;;;;;9.23;8.32;;;;;;;14.94;66.20;101117.53;4877275;28;101894;-87
2021/09/22 10:35:25;;;;;;;9.10;8.10;;;;;;;14.78;66.39;101113.78;4861231;28;96875;-85
2021/09/22 10:38:21;;;;;;;8.07;7.40;;;;;;;14.61;66.42;101115.28;4895110;28;96899;-87
2021/09/22 10:40:53;;;;;;;9.93;7.72;;;;;;;14.41;66.25;101113.38;4887038;28;100745;-84
2021/09/22 10:43:25;;;;;;;8.10;7.50;;;;;;;14.39;66.10;101112.56;4861295;28;100191;-83
2021/09/22 10:46:05;;;;;;;12.10;8.32;;;;;;;14.36;66.10;101107.38;4879749;28;96730;-76
2021/09/22 10:48:33;;;;;;;9.55;7.88;;;;;;;14.34;66.02;101105.72;4894690;28;97431;-79
2021/09/22 10:51:04;;;;;;;9.15;8.00;;;;;;;14.47;66.04;101113.13;4893073;28;97525;-78
2021/09/22 10:53:30;;;;;;;9.38;8.13;;;;;;;14.67;64.92;101108.91;4878679;28;101636;-84
2021/09/22 10:56:12;;;;;;;8.20;7.50;;;;;;;14.86;64.33;101116.97;4897312;28;96799;-82
2021/09/22 10:58:49;;;;;;;8.50;7.80;;;;;;;14.97;63.51;101111.28;4875444;28;98817;-83
2021/09/22 11:01:40;;;;;;;8.50;7.90;;;;;;;15.11;63.66;101114.22;4876591;28;102901;-83
2021/09/22 11:04:07;;;;;;;13.82;9.00;;;;;;;15.30;63.92;101112.56;4885312;28;101361;-83
2021/09/22 11:06:45;;;;;;;9.73;8.73;;;;;;;15.59;62.88;101102.53;4860462;28;96826;-85
2021/09/22 11:09:17;;;;;;;7.95;7.25;;;;;;;15.71;61.95;101101.22;4893149;28;96834;-83
2021/09/22 11:11:54;;;;;;;;;;;;;;;15.51;62.71;101110.81;4893751;28;100515;-81
2021/09/22 11:14:41;;;;;;;9.55;7.63;;;;;;;15.19;62.15;101104.22;4874483;28;100556;-84
2021/09/22 11:17:11;;;;;;;8.82;7.93;;;;;;;15.14;63.28;101100.88;4876217;28;97409;-84
2021/09/22 11:19:39;;;;;;;8.35;7.45;;;;;;;15.03;63.87;101095.16;4876236;28;97203;-81
2021/09/22 11:22:08;;;;;;;8.75;7.10;;;;;;;15.01;63.87;101092.59;4877928;28;101256;-80
2021/09/22 11:24:34;;;;;;;8.13;7.32;;;;;;;15.03;63.26;101098.66;4868486;28;101051;-77
2021/09/22 11:27:02;;;;;;;8.27;7.30;;;;;;;15.08;62.29;101101.13;4894245;28;97572;-77
2021/09/22 11:29:36;;;;;;;6.97;6.35;;;;;;;15.20;61.23;101092.69;4893276;28;96878;-78
2021/09/22 11:32:07;;;;;;;7.30;6.68;;;;;;;15.29;61.20;101091.44;4871248;28;101508;-82
2021/09/22 11:34:37;;;;;;;7.70;7.13;;;;;;;15.21;60.87;101088.25;4874987;28;101388;-81
2021/09/22 11:37:09;;;;;;;7.78;6.88;;;;;;;15.20;60.63;101091.84;4890677;28;98700;-83
2021/09/22 11:39:36;;;;;;;8.70;7.90;;;;;;;15.28;61.66;101100.31;4874788;28;97765;-78
2021/09/22 11:42:02;;;;;;;9.00;6.93;;;;;;;15.35;61.47;101092.06;4873669;28;101013;-78
2021/09/22 11:44:29;;;;;;;8.82;7.53;;;;;;;15.48;61.47;101088.91;4876986;28;101649;-77
2021/09/22 11:46:58;;;;;;;8.35;7.65;;;;;;;15.45;61.43;101087.25;4878973;28;97501;-79
2021/09/22 11:49:37;;;;;;;8.75;7.90;;;;;;;15.54;61.43;101096.59;4861185;28;96870;-82
2021/09/22 11:52:21;;;;;;;8.98;8.18;;;;;;;15.69;61.83;101090.66;4872457;28;101728;-78
2021/09/22 11:54:47;;;;;;;8.57;7.80;;;;;;;15.75;61.62;101085.09;4884130;28;98097;-81
2021/09/22 11:57:15;;;;;;;11.85;8.55;;;;;;;15.80;61.38;101085.78;4893667;28;97168;-84
2021/09/22 11:59:43;;;;;;;10.82;8.40;;;;;;;15.87;61.23;101088.16;4878897;28;96906;-81
2021/09/22 12:02:09;;;;;;;13.95;9.23;;;;;;;15.82;61.32;101097.16;4861998;28;101388;-82
2021/09/22 12:04:45;;;;;;;9.65;8.65;;;;;;;15.79;61.29;101096.41;4876457;28;101604;-81
2021/09/22 12:07:12;;;;;;;12.30;8.85;;;;;;;15.75;60.76;101092.19;4872031;28;96811;-81
2021/09/22 12:09:37;;;;;;;9.30;8.40;;;;;;;15.65;60.76;101090.81;4861711;28;97010;-81
2021/09/22 12:12:07;;;;;;;8.95;8.35;;;;;;;15.42;61.25;101083.84;4891396;28;98526;-81
2021/09/22 12:14:32;;;;;;;14.55;8.35;;;;;;;15.37;61.74;101106.09;4857560;28;101280;-81
2021/09/22 12:17:34;;;;;;;9.85;8.95;;;;;;;15.26;61.62;101091.59;4860450;28;96806;-81
2021/09/22 12:20:00;;;;;;;;;;;;;;;15.16;62.33;101106.97;4875202;28;97580;-82
2021/09/22 12:22:34;;;;;;;10.32;9.10;;;;;;;15.16;62.48;101102.53;4873096;28;101396;-83
2021/09/22 12:25:00;;;;;;;11.43;8.90;;;;;;;15.16;62.75;101106.97;4876344;28;101573;-83